createdAt,value
2017-07-04T00:00:31.587Z,49.9
2017-07-04T00:01:32.989Z,50.0
2017-07-04T00:02:34.391Z,50.0
2017-07-04T00:03:35.795Z,50.0
2017-07-04T00:04:37.198Z,49.8
2017-07-04T00:05:38.601Z,49.9
2017-07-04T00:06:40.004Z,50.1
2017-07-04T00:07:41.414Z,50.3
2017-07-04T00:08:42.813Z,50.4
2017-07-04T00:09:44.712Z,50.5
2017-07-04T00:10:46.398Z,50.3
2017-07-04T00:11:47.802Z,50.4
2017-07-04T00:12:49.207Z,50.7
2017-07-04T00:13:50.611Z,50.5
2017-07-04T00:14:52.016Z,50.8
2017-07-04T00:15:53.432Z,50.7
2017-07-04T00:16:54.822Z,50.5
2017-07-04T00:17:56.224Z,50.6
2017-07-04T00:18:57.628Z,50.5
2017-07-04T00:19:59.031Z,50.7
2017-07-04T00:21:00.437Z,50.5
2017-07-04T00:22:02.225Z,50.5
2017-07-04T00:23:03.925Z,50.5
2017-07-04T00:24:05.328Z,50.8
2017-07-04T00:25:06.734Z,50.8
2017-07-04T00:26:08.136Z,50.5
2017-07-04T00:27:09.540Z,50.5
2017-07-04T00:28:10.946Z,50.6
2017-07-04T00:29:12.350Z,50.7
2017-07-04T00:30:13.753Z,50.6
2017-07-04T00:31:15.184Z,50.7
2017-07-04T00:32:16.587Z,50.6
2017-07-04T00:33:18.488Z,50.5
2017-07-04T00:34:19.892Z,50.5
2017-07-04T00:35:21.294Z,50.6
2017-07-04T00:36:22.701Z,50.7
2017-07-04T00:37:24.102Z,50.5
2017-07-04T00:38:25.506Z,50.5
2017-07-04T00:39:26.907Z,50.6
2017-07-04T00:40:28.313Z,50.6
2017-07-04T00:41:29.718Z,50.7
2017-07-04T00:42:31.120Z,50.5
2017-07-04T00:43:32.528Z,50.5
2017-07-04T00:44:34.341Z,50.5
2017-07-04T00:45:36.236Z,50.6
2017-07-04T00:46:37.643Z,50.6
2017-07-04T00:47:39.051Z,50.7
2017-07-04T00:48:40.471Z,50.5
2017-07-04T00:49:41.876Z,50.7
2017-07-04T00:50:43.279Z,50.7
2017-07-04T00:51:44.688Z,50.6
2017-07-04T00:52:46.100Z,50.5
2017-07-04T00:53:47.504Z,50.6
2017-07-04T00:54:48.908Z,50.5
2017-07-04T00:55:50.310Z,50.5
2017-07-04T00:56:52.223Z,50.6
2017-07-04T00:57:54.117Z,50.5
2017-07-04T00:58:55.522Z,50.7
2017-07-04T00:59:56.925Z,50.7
2017-07-04T01:00:58.326Z,50.7
2017-07-04T01:01:59.730Z,50.6
2017-07-04T01:03:01.126Z,50.7
2017-07-04T01:04:02.545Z,50.7
2017-07-04T01:05:03.949Z,50.8
2017-07-04T01:06:05.349Z,50.6
2017-07-04T01:07:06.752Z,50.5
2017-07-04T01:08:08.154Z,50.6
2017-07-04T01:09:09.561Z,50.6
2017-07-04T01:10:10.965Z,50.4
2017-07-04T01:11:12.868Z,50.4
2017-07-04T01:12:14.272Z,50.7
2017-07-04T01:13:15.670Z,50.8
2017-07-04T01:14:17.076Z,50.8
2017-07-04T01:15:18.477Z,50.9
2017-07-04T01:16:19.881Z,50.9
2017-07-04T01:17:21.285Z,50.8
2017-07-04T01:18:22.690Z,50.9
2017-07-04T01:19:24.524Z,50.7
2017-07-04T01:20:26.408Z,50.9
2017-07-04T01:21:27.810Z,50.6
2017-07-04T01:22:29.215Z,50.8
2017-07-04T01:23:30.618Z,50.5
2017-07-04T01:24:32.023Z,50.5
2017-07-04T01:25:33.427Z,50.4
2017-07-04T01:26:34.833Z,50.5
2017-07-04T01:27:36.233Z,50.6
2017-07-04T01:28:37.640Z,50.5
2017-07-04T01:29:39.044Z,50.4
2017-07-04T01:30:40.466Z,50.3
2017-07-04T01:31:42.539Z,50.4
2017-07-04T01:32:44.472Z,50.4
2017-07-04T01:33:45.877Z,50.4
2017-07-04T01:34:47.280Z,50.4
2017-07-04T01:35:48.685Z,50.3
2017-07-04T01:36:50.087Z,50.4
2017-07-04T01:37:51.492Z,50.9
2017-07-04T01:38:52.895Z,50.5
2017-07-04T01:39:54.302Z,50.6
2017-07-04T01:40:55.705Z,50.7
2017-07-04T01:41:57.106Z,50.5
2017-07-04T01:42:58.510Z,50.7
2017-07-04T01:44:00.411Z,50.7
2017-07-04T01:45:02.312Z,50.7
2017-07-04T01:46:03.716Z,50.6
2017-07-04T01:47:05.120Z,50.6
2017-07-04T01:48:06.527Z,50.8
2017-07-04T01:49:07.927Z,51.0
2017-07-04T01:50:09.329Z,51.0
2017-07-04T01:51:10.734Z,51.0
2017-07-04T01:52:12.134Z,51.0
2017-07-04T01:53:13.539Z,50.9
2017-07-04T01:54:14.943Z,50.7
2017-07-04T01:55:16.827Z,50.9
2017-07-04T01:56:18.228Z,50.9
2017-07-04T01:57:19.630Z,50.9
2017-07-04T01:58:21.031Z,50.8
2017-07-04T01:59:22.439Z,50.7
2017-07-04T02:00:23.842Z,50.9
2017-07-04T02:01:25.247Z,50.8
2017-07-04T02:02:26.654Z,50.9
2017-07-04T02:03:28.055Z,50.8
2017-07-04T02:04:29.459Z,51.0
2017-07-04T02:05:30.858Z,51.3
2017-07-04T02:06:32.263Z,51.1
2017-07-04T02:07:34.346Z,51.2
2017-07-04T02:08:35.751Z,51.0
2017-07-04T02:09:37.160Z,51.2
2017-07-04T02:10:38.561Z,51.2
2017-07-04T02:11:39.963Z,51.1
2017-07-04T02:12:41.366Z,51.0
2017-07-04T02:13:42.774Z,51.6
2017-07-04T02:14:44.177Z,51.6
2017-07-04T02:15:45.582Z,51.4
2017-07-04T02:16:46.986Z,51.2
2017-07-04T02:17:48.387Z,51.4
2017-07-04T02:18:49.794Z,51.4
2017-07-04T02:19:51.701Z,51.5
2017-07-04T02:20:53.107Z,51.4
2017-07-04T02:21:54.560Z,51.5
2017-07-04T02:22:55.918Z,51.2
2017-07-04T02:23:57.323Z,51.4
2017-07-04T02:24:58.726Z,51.3
2017-07-04T02:26:00.134Z,51.2
2017-07-04T02:27:01.536Z,51.3
2017-07-04T02:28:02.939Z,51.2
2017-07-04T02:29:04.345Z,51.4
2017-07-04T02:30:05.750Z,51.2
2017-07-04T02:31:07.154Z,51.3
2017-07-04T02:32:09.041Z,50.8
2017-07-04T02:33:10.443Z,51.2
2017-07-04T02:34:11.847Z,51.2
2017-07-04T02:35:13.250Z,51.2
2017-07-04T02:36:14.652Z,51.3
2017-07-04T02:37:16.059Z,51.1
2017-07-04T02:38:17.464Z,50.9
2017-07-04T02:39:18.865Z,51.2
2017-07-04T02:40:20.273Z,51.3
2017-07-04T02:41:21.676Z,51.3
2017-07-04T02:42:23.089Z,51.0
2017-07-04T02:43:24.492Z,51.1
2017-07-04T02:44:25.906Z,51.2
2017-07-04T02:45:27.312Z,51.2
2017-07-04T02:46:28.714Z,51.1
2017-07-04T02:47:30.118Z,50.9
2017-07-04T02:48:31.520Z,51.2
2017-07-04T02:49:32.926Z,51.1
2017-07-04T02:50:34.353Z,50.9
2017-07-04T02:51:35.755Z,51.1
2017-07-04T02:52:37.162Z,51.5
2017-07-04T02:53:38.563Z,51.3
2017-07-04T02:54:40.444Z,51.4
2017-07-04T02:55:41.848Z,51.1
2017-07-04T02:56:43.254Z,51.3
2017-07-04T02:57:44.656Z,51.1
2017-07-04T02:58:46.061Z,51.2
2017-07-04T02:59:47.465Z,51.4
2017-07-04T03:00:48.868Z,51.3
2017-07-04T03:01:50.269Z,51.3
2017-07-04T03:02:52.408Z,51.1
2017-07-04T03:03:53.811Z,51.0
2017-07-04T03:04:55.216Z,51.2
2017-07-04T03:05:56.620Z,51.2
2017-07-04T03:06:58.899Z,51.3
2017-07-04T03:08:00.294Z,51.1
2017-07-04T03:09:01.696Z,51.0
2017-07-04T03:10:03.099Z,51.0
2017-07-04T03:11:04.503Z,51.3
2017-07-04T03:12:05.910Z,51.1
2017-07-04T03:13:07.313Z,51.1
2017-07-04T03:14:08.724Z,51.0
2017-07-04T03:15:10.119Z,51.0
2017-07-04T03:16:11.520Z,51.1
2017-07-04T03:17:12.925Z,51.2
2017-07-04T03:18:14.331Z,51.2
2017-07-04T03:19:16.176Z,51.4
2017-07-04T03:20:17.597Z,51.1
2017-07-04T03:21:19.010Z,51.1
2017-07-04T03:22:20.411Z,51.3
2017-07-04T03:23:21.813Z,51.2
2017-07-04T03:24:23.248Z,51.2
2017-07-04T03:25:24.657Z,51.2
2017-07-04T03:26:26.062Z,51.3
2017-07-04T03:27:27.466Z,51.4
2017-07-04T03:28:29.729Z,51.4
2017-07-04T03:29:31.128Z,51.2
2017-07-04T03:30:32.533Z,51.4
2017-07-04T03:31:33.940Z,51.2
2017-07-04T03:32:35.339Z,51.1
2017-07-04T03:33:36.784Z,51.2
2017-07-04T03:34:38.191Z,51.5
2017-07-04T03:35:39.595Z,51.4
2017-07-04T03:36:40.996Z,51.0
2017-07-04T03:37:42.399Z,51.3
2017-07-04T03:38:44.416Z,51.3
2017-07-04T03:39:46.325Z,51.0
2017-07-04T03:40:48.225Z,51.3
2017-07-04T03:41:49.630Z,51.4
2017-07-04T03:42:51.036Z,51.3
2017-07-04T03:43:52.437Z,51.2
2017-07-04T03:44:53.839Z,51.2
2017-07-04T03:45:55.247Z,50.9
2017-07-04T03:46:56.652Z,51.1
2017-07-04T03:47:58.056Z,51.2
2017-07-04T03:48:59.462Z,51.1
2017-07-04T03:50:00.876Z,51.1
2017-07-04T03:51:02.276Z,51.4
2017-07-04T03:52:04.180Z,51.4
2017-07-04T03:53:06.070Z,51.0
2017-07-04T03:54:07.475Z,51.4
2017-07-04T03:55:08.878Z,51.0
2017-07-04T03:56:10.283Z,51.0
2017-07-04T03:57:12.419Z,51.2
2017-07-04T03:58:13.833Z,51.2
2017-07-04T03:59:15.237Z,51.1
2017-07-04T04:00:16.647Z,51.4
2017-07-04T04:01:18.050Z,51.1
2017-07-04T04:02:19.455Z,51.2
2017-07-04T04:03:20.858Z,51.2
2017-07-04T04:04:22.264Z,51.2
2017-07-04T04:05:23.671Z,51.2
2017-07-04T04:06:25.570Z,51.0
2017-07-04T04:07:27.033Z,51.2
2017-07-04T04:08:28.439Z,51.0
2017-07-04T04:09:29.853Z,51.3
2017-07-04T04:10:31.249Z,51.0
2017-07-04T04:11:32.653Z,51.0
2017-07-04T04:12:34.056Z,51.3
2017-07-04T04:13:35.459Z,51.3
2017-07-04T04:14:36.858Z,51.4
2017-07-04T04:15:38.946Z,51.2
2017-07-04T04:16:40.348Z,51.1
2017-07-04T04:17:41.760Z,51.0
2017-07-04T04:18:43.165Z,51.1
2017-07-04T04:19:44.567Z,51.1
2017-07-04T04:20:45.969Z,51.3
2017-07-04T04:21:47.372Z,51.1
2017-07-04T04:22:48.776Z,51.3
2017-07-04T04:23:50.179Z,50.9
2017-07-04T04:24:51.585Z,51.2
2017-07-04T04:25:52.989Z,51.2
2017-07-04T04:26:54.880Z,51.3
2017-07-04T04:27:56.402Z,51.2
2017-07-04T04:28:57.814Z,51.1
2017-07-04T04:29:59.218Z,51.3
2017-07-04T04:31:00.621Z,51.2
2017-07-04T04:32:02.026Z,51.2
2017-07-04T04:33:03.439Z,51.3
2017-07-04T04:34:04.853Z,51.4
2017-07-04T04:35:06.254Z,51.4
2017-07-04T04:36:07.657Z,51.1
2017-07-04T04:37:09.064Z,51.4
2017-07-04T04:38:10.466Z,51.4
2017-07-04T04:39:12.369Z,51.0
2017-07-04T04:40:13.772Z,51.2
2017-07-04T04:41:15.173Z,51.2
2017-07-04T04:42:16.574Z,51.0
2017-07-04T04:43:17.978Z,51.0
2017-07-04T04:44:19.380Z,51.0
2017-07-04T04:45:20.784Z,51.1
2017-07-04T04:46:22.189Z,51.0
2017-07-04T04:47:23.594Z,51.2
2017-07-04T04:48:25.006Z,51.0
2017-07-04T04:49:26.408Z,51.2
2017-07-04T04:50:27.809Z,51.0
2017-07-04T04:51:29.999Z,51.3
2017-07-04T04:52:31.405Z,51.3
2017-07-04T04:53:32.811Z,51.0
2017-07-04T04:54:34.216Z,51.4
2017-07-04T04:55:35.615Z,51.2
2017-07-04T04:56:37.019Z,51.2
2017-07-04T04:57:38.932Z,51.2
2017-07-04T04:58:40.339Z,51.5
2017-07-04T04:59:41.739Z,51.4
2017-07-04T05:00:43.143Z,51.5
2017-07-04T05:01:45.031Z,51.4
2017-07-04T05:02:46.717Z,51.4
2017-07-04T05:03:48.121Z,51.6
2017-07-04T05:04:49.523Z,51.6
2017-07-04T05:05:50.925Z,51.5
2017-07-04T05:06:52.330Z,51.4
2017-07-04T05:07:53.737Z,51.6
2017-07-04T05:08:55.142Z,51.6
2017-07-04T05:09:56.542Z,51.8
2017-07-04T05:10:57.944Z,51.5
2017-07-04T05:11:59.354Z,51.8
2017-07-04T05:13:00.756Z,51.6
2017-07-04T05:14:02.637Z,51.4
2017-07-04T05:15:04.326Z,51.9
2017-07-04T05:16:05.730Z,51.8
2017-07-04T05:17:07.131Z,52.4
2017-07-04T05:18:08.535Z,52.5
2017-07-04T05:19:09.936Z,53.0
2017-07-04T05:20:11.340Z,52.8
2017-07-04T05:21:12.744Z,53.3
2017-07-04T05:22:14.148Z,53.5
2017-07-04T05:23:15.553Z,53.6
2017-07-04T05:24:16.954Z,53.6
2017-07-04T05:25:18.754Z,53.8
2017-07-04T05:26:20.650Z,54.0
2017-07-04T05:27:22.053Z,54.6
2017-07-04T05:28:23.462Z,54.7
2017-07-04T05:29:24.865Z,54.6
2017-07-04T05:30:26.271Z,54.7
2017-07-04T05:31:27.679Z,54.7
2017-07-04T05:32:29.084Z,54.5
2017-07-04T05:33:30.487Z,55.1
2017-07-04T05:34:31.891Z,55.6
2017-07-04T05:35:33.995Z,55.5
2017-07-04T05:36:35.404Z,55.9
2017-07-04T05:37:36.807Z,55.8
2017-07-04T05:38:38.213Z,56.6
2017-07-04T05:39:39.613Z,56.2
2017-07-04T05:40:41.018Z,56.9
2017-07-04T05:41:42.430Z,56.9
2017-07-04T05:42:43.834Z,57.1
2017-07-04T05:43:45.240Z,57.0
2017-07-04T05:44:46.645Z,57.6
2017-07-04T05:45:48.082Z,57.6
2017-07-04T05:46:49.523Z,57.6
2017-07-04T05:47:51.429Z,58.1
2017-07-04T05:48:53.298Z,57.7
2017-07-04T05:49:54.700Z,57.9
2017-07-04T05:50:56.104Z,57.6
2017-07-04T05:51:57.511Z,57.2
2017-07-04T05:52:58.911Z,57.5
2017-07-04T05:54:00.312Z,57.0
2017-07-04T05:55:01.717Z,57.9
2017-07-04T05:56:03.122Z,57.1
2017-07-04T05:57:04.526Z,57.0
2017-07-04T05:58:05.930Z,57.3
2017-07-04T05:59:07.338Z,56.9
2017-07-04T06:00:09.601Z,57.0
2017-07-04T06:01:10.999Z,57.0
2017-07-04T06:02:12.408Z,57.0
2017-07-04T06:03:13.814Z,57.1
2017-07-04T06:04:15.220Z,56.9
2017-07-04T06:05:16.624Z,56.6
2017-07-04T06:06:18.029Z,56.7
2017-07-04T06:07:19.433Z,56.7
2017-07-04T06:08:20.833Z,56.5
2017-07-04T06:09:22.238Z,56.5
2017-07-04T06:10:23.641Z,56.3
2017-07-04T06:11:25.047Z,57.1
2017-07-04T06:12:26.955Z,56.6
2017-07-04T06:13:28.358Z,56.5
2017-07-04T06:14:29.759Z,56.4
2017-07-04T06:15:31.161Z,55.8
2017-07-04T06:16:32.564Z,56.1
2017-07-04T06:17:33.977Z,56.3
2017-07-04T06:18:35.385Z,56.4
2017-07-04T06:19:36.786Z,56.6
2017-07-04T06:20:38.200Z,56.4
2017-07-04T06:21:39.604Z,56.1
2017-07-04T06:22:41.490Z,56.2
2017-07-04T06:23:42.894Z,56.1
2017-07-04T06:24:44.311Z,56.4
2017-07-04T06:25:45.714Z,56.2
2017-07-04T06:26:47.117Z,56.4
2017-07-04T06:27:48.524Z,56.1
2017-07-04T06:28:49.925Z,56.3
2017-07-04T06:29:51.327Z,56.3
2017-07-04T06:30:52.729Z,56.2
2017-07-04T06:31:54.134Z,55.9
2017-07-04T06:32:55.539Z,56.2
2017-07-04T06:33:56.942Z,56.2
2017-07-04T06:34:59.041Z,56.0
2017-07-04T06:36:00.444Z,56.1
2017-07-04T06:37:01.849Z,55.8
2017-07-04T06:38:03.248Z,55.8
2017-07-04T06:39:04.653Z,55.8
2017-07-04T06:40:06.057Z,56.0
2017-07-04T06:41:07.464Z,56.0
2017-07-04T06:42:08.867Z,55.9
2017-07-04T06:43:10.269Z,55.7
2017-07-04T06:44:11.673Z,56.0
2017-07-04T06:45:13.079Z,55.9
2017-07-04T06:46:14.483Z,56.0
2017-07-04T06:47:16.372Z,55.9
2017-07-04T06:48:17.777Z,55.6
2017-07-04T06:49:19.205Z,55.5
2017-07-04T06:50:20.606Z,55.7
2017-07-04T06:51:22.010Z,55.5
2017-07-04T06:52:23.474Z,55.5
2017-07-04T06:53:24.884Z,55.5
2017-07-04T06:54:26.286Z,55.6
2017-07-04T06:55:27.691Z,55.6
2017-07-04T06:56:29.101Z,55.5
2017-07-04T06:57:30.504Z,55.6
2017-07-04T06:58:31.906Z,55.5
2017-07-04T06:59:33.791Z,55.6
2017-07-04T07:00:35.193Z,55.3
2017-07-04T07:01:36.597Z,55.2
2017-07-04T07:02:38.680Z,55.6
2017-07-04T07:03:40.103Z,55.7
2017-07-04T07:04:41.506Z,56.0
2017-07-04T07:05:42.904Z,56.1
2017-07-04T07:06:44.315Z,56.0
2017-07-04T07:07:45.711Z,56.1
2017-07-04T07:08:47.117Z,56.1
2017-07-04T07:09:49.203Z,56.1
2017-07-04T07:10:50.619Z,56.2
2017-07-04T07:11:52.022Z,56.2
2017-07-04T07:12:53.425Z,56.2
2017-07-04T07:13:54.826Z,56.2
2017-07-04T07:14:56.236Z,55.6
2017-07-04T07:15:57.636Z,55.6
2017-07-04T07:16:59.042Z,55.6
2017-07-04T07:18:00.447Z,55.6
2017-07-04T07:19:01.849Z,55.5
2017-07-04T07:20:03.252Z,55.6
2017-07-04T07:21:05.507Z,55.5
2017-07-04T07:22:07.353Z,55.4
2017-07-04T07:23:08.758Z,55.5
2017-07-04T07:24:10.164Z,55.5
2017-07-04T07:25:11.567Z,55.4
2017-07-04T07:26:12.964Z,55.4
2017-07-04T07:27:14.373Z,55.4
2017-07-04T07:28:15.781Z,55.5
2017-07-04T07:29:17.186Z,55.4
2017-07-04T07:30:18.588Z,55.4
2017-07-04T07:31:19.993Z,55.4
2017-07-04T07:32:21.397Z,55.5
2017-07-04T07:33:23.301Z,55.4
2017-07-04T07:34:25.203Z,55.3
2017-07-04T07:35:26.606Z,55.5
2017-07-04T07:36:28.007Z,55.5
2017-07-04T07:37:29.427Z,55.5
2017-07-04T07:38:30.831Z,55.5
2017-07-04T07:39:32.235Z,55.5
2017-07-04T07:40:33.635Z,55.2
2017-07-04T07:41:35.040Z,55.4
2017-07-04T07:42:36.447Z,55.5
2017-07-04T07:43:37.853Z,55.3
2017-07-04T07:44:39.255Z,55.3
2017-07-04T07:45:40.660Z,55.3
2017-07-04T07:46:42.458Z,55.3
2017-07-04T07:47:43.922Z,55.3
2017-07-04T07:48:45.329Z,55.3
2017-07-04T07:49:46.731Z,55.4
2017-07-04T07:50:48.135Z,55.3
2017-07-04T07:51:49.539Z,55.5
2017-07-04T07:52:50.943Z,55.4
2017-07-04T07:53:52.349Z,55.4
2017-07-04T07:54:53.752Z,55.4
2017-07-04T07:55:56.015Z,55.4
2017-07-04T07:56:58.101Z,55.4
2017-07-04T07:57:59.559Z,55.4
2017-07-04T07:59:00.911Z,55.4
2017-07-04T08:00:02.317Z,55.6
2017-07-04T08:01:03.722Z,55.6
2017-07-04T08:02:05.123Z,55.5
2017-07-04T08:03:06.526Z,55.6
2017-07-04T08:04:07.929Z,56.2
2017-07-04T08:05:09.333Z,56.3
2017-07-04T08:06:10.737Z,55.5
2017-07-04T08:07:12.143Z,55.6
2017-07-04T08:08:14.032Z,55.6
2017-07-04T08:09:16.293Z,55.5
2017-07-04T08:10:17.694Z,55.6
2017-07-04T08:11:19.097Z,55.6
2017-07-04T08:12:20.502Z,55.6
2017-07-04T08:13:21.906Z,55.8
2017-07-04T08:14:23.311Z,55.7
2017-07-04T08:15:24.715Z,55.6
2017-07-04T08:16:26.118Z,55.7
2017-07-04T08:17:27.519Z,55.4
2017-07-04T08:18:28.935Z,55.5
2017-07-04T08:19:30.333Z,55.4
2017-07-04T08:20:32.230Z,55.4
2017-07-04T08:21:34.327Z,55.5
2017-07-04T08:22:35.731Z,55.4
2017-07-04T08:23:37.135Z,55.3
2017-07-04T08:24:38.535Z,55.4
2017-07-04T08:25:39.937Z,55.7
2017-07-04T08:26:41.342Z,55.7
2017-07-04T08:27:42.744Z,55.4
2017-07-04T08:28:44.149Z,55.4
2017-07-04T08:29:45.556Z,55.4
2017-07-04T08:30:46.957Z,55.4
2017-07-04T08:31:49.074Z,55.4
2017-07-04T08:32:50.475Z,55.3
2017-07-04T08:33:51.881Z,55.4
2017-07-04T08:34:53.283Z,55.4
2017-07-04T08:35:54.687Z,55.5
2017-07-04T08:36:56.093Z,55.5
2017-07-04T08:37:57.496Z,55.4
2017-07-04T08:38:58.896Z,55.5
2017-07-04T08:40:00.302Z,55.5
2017-07-04T08:41:01.705Z,55.5
2017-07-04T08:42:03.109Z,55.4
2017-07-04T08:43:04.512Z,55.5
2017-07-04T08:44:06.600Z,55.5
2017-07-04T08:45:08.001Z,55.5
2017-07-04T08:46:09.403Z,55.4
2017-07-04T08:47:10.808Z,55.4
2017-07-04T08:48:12.212Z,55.6
2017-07-04T08:49:13.624Z,55.4
2017-07-04T08:50:15.029Z,55.5
2017-07-04T08:51:16.435Z,55.4
2017-07-04T08:52:17.842Z,55.4
2017-07-04T08:53:19.243Z,55.4
2017-07-04T08:54:20.647Z,55.5
2017-07-04T08:55:22.053Z,55.5
2017-07-04T08:56:24.232Z,55.5
2017-07-04T08:57:25.639Z,55.5
2017-07-04T08:58:27.044Z,55.5
2017-07-04T08:59:28.450Z,55.5
2017-07-04T09:00:29.851Z,55.6
2017-07-04T09:01:31.252Z,55.5
2017-07-04T09:02:32.657Z,55.8
2017-07-04T09:03:34.063Z,55.7
2017-07-04T09:04:35.468Z,55.5
2017-07-04T09:05:36.873Z,56.2
2017-07-04T09:06:38.278Z,55.4
2017-07-04T09:07:39.677Z,56.2
2017-07-04T09:08:41.080Z,56.1
2017-07-04T09:09:42.484Z,56.2
2017-07-04T09:10:43.887Z,56.2
2017-07-04T09:11:45.295Z,55.6
2017-07-04T09:12:46.701Z,55.5
2017-07-04T09:13:48.104Z,55.6
2017-07-04T09:14:49.506Z,55.7
2017-07-04T09:15:50.910Z,55.4
2017-07-04T09:16:52.312Z,55.4
2017-07-04T09:17:54.211Z,55.5
2017-07-04T09:18:56.298Z,55.3
2017-07-04T09:19:57.702Z,55.4
2017-07-04T09:20:59.106Z,55.1
2017-07-04T09:22:00.511Z,55.0
2017-07-04T09:23:01.912Z,55.2
2017-07-04T09:24:03.323Z,55.2
2017-07-04T09:25:04.727Z,55.0
2017-07-04T09:26:06.132Z,55.3
2017-07-04T09:27:07.541Z,55.0
2017-07-04T09:28:08.942Z,55.0
2017-07-04T09:29:10.347Z,54.9
2017-07-04T09:30:12.234Z,54.9
2017-07-04T09:31:14.028Z,55.1
2017-07-04T09:32:15.434Z,55.1
2017-07-04T09:33:16.855Z,55.0
2017-07-04T09:34:18.256Z,54.9
2017-07-04T09:35:19.657Z,54.8
2017-07-04T09:36:21.058Z,54.8
2017-07-04T09:37:22.462Z,55.3
2017-07-04T09:38:23.866Z,55.1
2017-07-04T09:39:25.270Z,55.0
2017-07-04T09:40:26.677Z,54.6
2017-07-04T09:41:28.079Z,54.9
2017-07-04T09:42:30.202Z,54.8
2017-07-04T09:43:32.247Z,55.0
2017-07-04T09:44:33.650Z,54.9
2017-07-04T09:45:35.052Z,54.5
2017-07-04T09:46:36.456Z,54.5
2017-07-04T09:47:37.874Z,55.0
2017-07-04T09:48:39.265Z,54.5
2017-07-04T09:49:40.669Z,54.7
2017-07-04T09:50:42.071Z,55.0
2017-07-04T09:51:43.473Z,54.8
2017-07-04T09:52:44.877Z,55.0
2017-07-04T09:53:46.280Z,55.0
2017-07-04T09:54:47.684Z,55.0
2017-07-04T09:55:49.962Z,54.5
2017-07-04T09:56:51.366Z,54.6
2017-07-04T09:57:52.767Z,55.1
2017-07-04T09:58:54.169Z,54.9
2017-07-04T09:59:55.580Z,54.8
2017-07-04T10:00:56.997Z,54.9
2017-07-04T10:01:58.407Z,55.0
2017-07-04T10:02:59.818Z,55.0
2017-07-04T10:04:01.216Z,55.0
2017-07-04T10:05:03.122Z,55.0
2017-07-04T10:06:04.523Z,54.8
2017-07-04T10:07:05.928Z,54.5
2017-07-04T10:08:07.334Z,54.6
2017-07-04T10:09:08.738Z,54.6
2017-07-04T10:10:10.142Z,54.6
2017-07-04T10:11:11.544Z,54.5
2017-07-04T10:12:12.946Z,55.0
2017-07-04T10:13:14.348Z,54.6
2017-07-04T10:14:15.754Z,55.0
2017-07-04T10:15:17.157Z,55.0
2017-07-04T10:16:18.563Z,54.5
2017-07-04T10:17:20.448Z,54.5
2017-07-04T10:18:21.851Z,54.5
2017-07-04T10:19:23.254Z,54.5
2017-07-04T10:20:24.656Z,54.5
2017-07-04T10:21:26.060Z,54.5
2017-07-04T10:22:27.467Z,54.6
2017-07-04T10:23:28.871Z,54.7
2017-07-04T10:24:30.279Z,54.8
2017-07-04T10:25:31.697Z,55.0
2017-07-04T10:26:33.099Z,54.7
2017-07-04T10:27:34.502Z,54.5
2017-07-04T10:28:35.911Z,55.2
2017-07-04T10:29:37.800Z,55.2
2017-07-04T10:30:39.204Z,55.2
2017-07-04T10:31:40.609Z,54.8
2017-07-04T10:32:42.012Z,55.2
2017-07-04T10:33:43.414Z,54.7
2017-07-04T10:34:44.817Z,55.2
2017-07-04T10:35:46.221Z,54.7
2017-07-04T10:36:47.626Z,55.1
2017-07-04T10:37:49.031Z,55.1
2017-07-04T10:38:50.436Z,54.6
2017-07-04T10:39:51.839Z,54.7
2017-07-04T10:40:54.144Z,54.7
2017-07-04T10:41:55.621Z,55.1
2017-07-04T10:42:57.023Z,54.7
2017-07-04T10:43:58.425Z,54.8
2017-07-04T10:44:59.830Z,54.7
2017-07-04T10:46:01.234Z,54.9
2017-07-04T10:47:02.644Z,54.9
2017-07-04T10:48:04.054Z,54.7
2017-07-04T10:49:05.455Z,54.6
2017-07-04T10:50:06.860Z,54.6
2017-07-04T10:51:08.266Z,54.8
2017-07-04T10:52:10.180Z,54.8
2017-07-04T10:53:11.574Z,54.8
2017-07-04T10:54:12.977Z,55.0
2017-07-04T10:55:14.380Z,54.9
2017-07-04T10:56:15.780Z,54.6
2017-07-04T10:57:17.185Z,54.7
2017-07-04T10:58:18.588Z,54.7
2017-07-04T10:59:19.994Z,55.0
2017-07-04T11:00:22.013Z,54.6
2017-07-04T11:01:23.415Z,54.6
2017-07-04T11:02:24.819Z,54.5
2017-07-04T11:03:26.221Z,54.4
2017-07-04T11:04:28.134Z,54.4
2017-07-04T11:05:29.545Z,54.4
2017-07-04T11:06:30.947Z,54.4
2017-07-04T11:07:32.350Z,54.4
2017-07-04T11:08:33.752Z,54.3
2017-07-04T11:09:35.159Z,54.4
2017-07-04T11:10:36.558Z,54.3
2017-07-04T11:11:37.966Z,54.3
2017-07-04T11:12:39.366Z,54.2
2017-07-04T11:13:40.773Z,54.2
2017-07-04T11:14:42.178Z,54.5
2017-07-04T11:15:43.593Z,54.4
2017-07-04T11:16:45.479Z,54.4
2017-07-04T11:17:46.901Z,54.4
2017-07-04T11:18:48.302Z,54.5
2017-07-04T11:19:49.705Z,54.3
2017-07-04T11:20:51.112Z,54.4
2017-07-04T11:21:52.517Z,54.4
2017-07-04T11:22:53.921Z,54.4
2017-07-04T11:23:55.325Z,54.4
2017-07-04T11:24:56.731Z,54.2
2017-07-04T11:25:58.134Z,54.1
2017-07-04T11:27:00.023Z,54.0
2017-07-04T11:28:01.426Z,54.0
2017-07-04T11:29:02.835Z,54.0
2017-07-04T11:30:04.237Z,54.2
2017-07-04T11:31:05.641Z,54.1
2017-07-04T11:32:07.042Z,54.1
2017-07-04T11:33:08.448Z,54.1
2017-07-04T11:34:09.851Z,53.8
2017-07-04T11:35:11.256Z,53.7
2017-07-04T11:36:12.660Z,53.8
2017-07-04T11:37:14.062Z,54.1
2017-07-04T11:38:15.465Z,53.8
2017-07-04T11:39:17.438Z,54.1
2017-07-04T11:40:18.835Z,53.8
2017-07-04T11:41:20.239Z,53.8
2017-07-04T11:42:21.643Z,54.1
2017-07-04T11:43:23.054Z,54.1
2017-07-04T11:44:24.452Z,54.1
2017-07-04T11:45:25.855Z,53.8
2017-07-04T11:46:27.257Z,53.8
2017-07-04T11:47:28.662Z,53.8
2017-07-04T11:48:30.067Z,54.1
2017-07-04T11:49:31.471Z,54.2
2017-07-04T11:50:32.876Z,53.8
2017-07-04T11:51:34.730Z,54.0
2017-07-04T11:52:36.132Z,53.8
2017-07-04T11:53:37.535Z,53.8
2017-07-04T11:54:38.937Z,53.9
2017-07-04T11:55:40.340Z,54.1
2017-07-04T11:56:41.749Z,54.1
2017-07-04T11:57:43.153Z,54.2
2017-07-04T11:58:44.553Z,53.9
2017-07-04T11:59:45.959Z,53.9
2017-07-04T12:00:47.363Z,54.0
2017-07-04T12:01:48.768Z,54.1
2017-07-04T12:02:50.171Z,54.4
2017-07-04T12:03:52.060Z,54.4
2017-07-04T12:04:53.467Z,54.4
2017-07-04T12:05:54.871Z,54.3
2017-07-04T12:06:56.277Z,54.3
2017-07-04T12:07:57.679Z,54.3
2017-07-04T12:08:59.081Z,54.3
2017-07-04T12:10:00.492Z,54.2
2017-07-04T12:11:01.901Z,54.4
2017-07-04T12:12:03.301Z,54.4
2017-07-04T12:13:04.702Z,54.5
2017-07-04T12:14:06.799Z,54.6
2017-07-04T12:15:08.198Z,54.9
2017-07-04T12:16:09.605Z,54.7
2017-07-04T12:17:11.009Z,54.8
2017-07-04T12:18:12.415Z,54.8
2017-07-04T12:19:13.821Z,54.8
2017-07-04T12:20:15.222Z,54.8
2017-07-04T12:21:16.626Z,54.9
2017-07-04T12:22:18.038Z,54.8
2017-07-04T12:23:19.440Z,54.6
2017-07-04T12:24:20.845Z,54.9
2017-07-04T12:25:22.897Z,54.7
2017-07-04T12:26:24.803Z,55.4
2017-07-04T12:27:26.204Z,55.3
2017-07-04T12:28:27.606Z,55.1
2017-07-04T12:29:29.009Z,55.1
2017-07-04T12:30:30.411Z,55.3
2017-07-04T12:31:31.815Z,55.2
2017-07-04T12:32:33.221Z,55.4
2017-07-04T12:33:34.627Z,55.2
2017-07-04T12:34:36.029Z,55.1
2017-07-04T12:35:37.432Z,54.6
2017-07-04T12:36:38.835Z,54.6
2017-07-04T12:37:41.283Z,54.9
2017-07-04T12:38:42.687Z,55.2
2017-07-04T12:39:44.091Z,54.4
2017-07-04T12:40:45.497Z,54.7
2017-07-04T12:41:46.900Z,55.3
2017-07-04T12:42:48.303Z,54.7
2017-07-04T12:43:49.705Z,54.4
2017-07-04T12:44:51.112Z,54.5
2017-07-04T12:45:52.515Z,54.8
2017-07-04T12:46:53.924Z,54.5
2017-07-04T12:47:55.336Z,54.5
2017-07-04T12:48:56.739Z,54.8
2017-07-04T12:49:58.193Z,55.0
2017-07-04T12:50:59.548Z,55.1
2017-07-04T12:52:00.954Z,54.8
2017-07-04T12:53:02.358Z,55.1
2017-07-04T12:54:03.771Z,54.9
2017-07-04T12:55:05.173Z,55.2
2017-07-04T12:56:06.575Z,55.1
2017-07-04T12:57:07.977Z,55.2
2017-07-04T12:58:09.385Z,55.2
2017-07-04T12:59:10.785Z,55.5
2017-07-04T13:00:12.688Z,55.3
2017-07-04T13:01:14.092Z,55.6
2017-07-04T13:02:15.497Z,55.4
2017-07-04T13:03:16.900Z,55.5
2017-07-04T13:04:18.311Z,55.5
2017-07-04T13:05:19.714Z,55.5
2017-07-04T13:06:21.129Z,56.0
2017-07-04T13:07:22.539Z,55.7
2017-07-04T13:08:23.943Z,55.5
2017-07-04T13:09:25.348Z,55.5
2017-07-04T13:10:26.750Z,55.4
2017-07-04T13:11:28.864Z,55.5
2017-07-04T13:12:30.948Z,55.3
2017-07-04T13:13:32.353Z,55.1
2017-07-04T13:14:33.766Z,55.2
2017-07-04T13:15:35.173Z,55.4
2017-07-04T13:16:36.582Z,55.1
2017-07-04T13:17:37.986Z,55.1
2017-07-04T13:18:39.388Z,55.1
2017-07-04T13:19:40.793Z,55.2
2017-07-04T13:20:42.195Z,55.2
2017-07-04T13:21:43.600Z,55.0
2017-07-04T13:22:45.019Z,55.1
2017-07-04T13:23:47.102Z,55.3
2017-07-04T13:24:48.505Z,55.0
2017-07-04T13:25:49.906Z,55.2
2017-07-04T13:26:51.308Z,55.1
2017-07-04T13:27:52.712Z,55.1
2017-07-04T13:28:54.119Z,55.1
2017-07-04T13:29:55.536Z,55.3
2017-07-04T13:30:56.942Z,55.1
2017-07-04T13:31:58.343Z,55.3
2017-07-04T13:32:59.747Z,55.5
2017-07-04T13:34:01.151Z,55.4
2017-07-04T13:35:02.552Z,55.2
2017-07-04T13:36:03.959Z,55.4
2017-07-04T13:37:05.381Z,55.2
2017-07-04T13:38:07.313Z,55.5